Terminal Aerodrome Forecast
Issued by NWS

Home | Current Version | Previous Version | Text Only | Print | Product List | Glossary On
Versions: 1 2 3 4 5 6 7 8 9 10 11 12 13 14 15 16 17 18 19 20 21 22 23 24 25 26
000
FTUS46 KOTX 121503 AAA
TAFPUW
TAF AMD
KPUW 121503Z 1215/1312 11003KT 6SM BR OVC007
     FM121900 VRB03KT P6SM SCT007
     FM130100 VRB03KT P6SM BKN007
     FM130300 VRB03KT 2SM BR SCT003 OVC007=

USA.gov is the U.S. government's official web portal to all federal, state and local government web resources and services.